sensor_id;sensor_type;location;lat;lon;timestamp;temperature;humidity
51661;DHT22;37741;49.748;8.490;2023-02-03T00:00:50;7.70;87.20
51661;DHT22;37741;49.748;8.490;2023-02-03T00:03:15;7.70;87.10
51661;DHT22;37741;49.748;8.490;2023-02-03T00:05:42;7.70;87.10
51661;DHT22;37741;49.748;8.490;2023-02-03T00:08:08;7.70;87.20
51661;DHT22;37741;49.748;8.490;2023-02-03T00:10:35;7.70;87.20
51661;DHT22;37741;49.748;8.490;2023-02-03T00:13:01;7.70;87.30
51661;DHT22;37741;49.748;8.490;2023-02-03T00:15:27;7.70;87.30
51661;DHT22;37741;49.748;8.490;2023-02-03T00:17:52;7.70;87.30
51661;DHT22;37741;49.748;8.490;2023-02-03T00:20:18;7.70;87.30
51661;DHT22;37741;49.748;8.490;2023-02-03T00:22:44;7.70;87.30
51661;DHT22;37741;49.748;8.490;2023-02-03T00:25:10;7.70;87.30
51661;DHT22;37741;49.748;8.490;2023-02-03T00:27:35;7.70;87.30
51661;DHT22;37741;49.748;8.490;2023-02-03T00:30:01;7.70;87.30
51661;DHT22;37741;49.748;8.490;2023-02-03T00:32:27;7.70;87.30
51661;DHT22;37741;49.748;8.490;2023-02-03T00:34:52;7.60;87.30
51661;DHT22;37741;49.748;8.490;2023-02-03T00:37:18;7.70;87.40
51661;DHT22;37741;49.748;8.490;2023-02-03T00:39:43;7.70;87.40
51661;DHT22;37741;49.748;8.490;2023-02-03T00:42:09;7.60;87.30
51661;DHT22;37741;49.748;8.490;2023-02-03T00:44:34;7.60;87.30
51661;DHT22;37741;49.748;8.490;2023-02-03T00:47:00;7.60;87.40
51661;DHT22;37741;49.748;8.490;2023-02-03T00:49:26;7.60;87.50
51661;DHT22;37741;49.748;8.490;2023-02-03T00:51:52;7.60;87.40
51661;DHT22;37741;49.748;8.490;2023-02-03T00:54:17;7.60;87.40
51661;DHT22;37741;49.748;8.490;2023-02-03T00:56:43;7.60;87.50
51661;DHT22;37741;49.748;8.490;2023-02-03T00:59:09;7.60;87.50
51661;DHT22;37741;49.748;8.490;2023-02-03T01:01:35;7.60;87.50
51661;DHT22;37741;49.748;8.490;2023-02-03T01:04:01;7.60;87.50
51661;DHT22;37741;49.748;8.490;2023-02-03T01:06:27;7.60;87.60
51661;DHT22;37741;49.748;8.490;2023-02-03T01:08:53;7.60;87.60
51661;DHT22;37741;49.748;8.490;2023-02-03T01:11:21;7.60;87.60
51661;DHT22;37741;49.748;8.490;2023-02-03T01:13:48;7.60;87.60
51661;DHT22;37741;49.748;8.490;2023-02-03T01:16:16;7.60;87.60
51661;DHT22;37741;49.748;8.490;2023-02-03T01:18:42;7.60;87.60
51661;DHT22;37741;49.748;8.490;2023-02-03T01:21:10;7.60;87.60
51661;DHT22;37741;49.748;8.490;2023-02-03T01:23:37;7.60;87.60
51661;DHT22;37741;49.748;8.490;2023-02-03T01:26:07;7.60;87.70
51661;DHT22;37741;49.748;8.490;2023-02-03T01:28:33;7.60;87.70
51661;DHT22;37741;49.748;8.490;2023-02-03T01:31:14;7.60;87.70
51661;DHT22;37741;49.748;8.490;2023-02-03T01:33:40;7.60;87.80
51661;DHT22;37741;49.748;8.490;2023-02-03T01:36:09;7.60;87.80
51661;DHT22;37741;49.748;8.490;2023-02-03T01:38:36;7.50;87.80
51661;DHT22;37741;49.748;8.490;2023-02-03T01:41:03;7.60;87.90
51661;DHT22;37741;49.748;8.490;2023-02-03T01:43:34;7.60;87.90
51661;DHT22;37741;49.748;8.490;2023-02-03T01:46:24;7.60;88.00
51661;DHT22;37741;49.748;8.490;2023-02-03T01:48:48;7.60;88.00
51661;DHT22;37741;49.748;8.490;2023-02-03T01:51:14;7.60;87.90
51661;DHT22;37741;49.748;8.490;2023-02-03T01:53:41;7.60;87.90
51661;DHT22;37741;49.748;8.490;2023-02-03T01:56:07;7.50;87.90
51661;DHT22;37741;49.748;8.490;2023-02-03T01:58:37;7.50;87.90
51661;DHT22;37741;49.748;8.490;2023-02-03T02:01:03;7.50;87.90
51661;DHT22;37741;49.748;8.490;2023-02-03T02:03:47;7.50;88.00
51661;DHT22;37741;49.748;8.490;2023-02-03T02:06:14;7.50;88.10
51661;DHT22;37741;49.748;8.490;2023-02-03T02:08:43;7.50;88.10
51661;DHT22;37741;49.748;8.490;2023-02-03T02:11:10;7.50;88.20
51661;DHT22;37741;49.748;8.490;2023-02-03T02:13:36;7.50;88.20
51661;DHT22;37741;49.748;8.490;2023-02-03T02:31:59;7.50;88.50
51661;DHT22;37741;49.748;8.490;2023-02-03T02:42:41;7.60;88.60
51661;DHT22;37741;49.748;8.490;2023-02-03T02:47:58;7.50;88.60
51661;DHT22;37741;49.748;8.490;2023-02-03T02:50:27;7.50;88.60
51661;DHT22;37741;49.748;8.490;2023-02-03T02:52:56;7.50;89.20
51661;DHT22;37741;49.748;8.490;2023-02-03T02:55:25;7.50;88.60
51661;DHT22;37741;49.748;8.490;2023-02-03T02:57:54;7.50;88.60
51661;DHT22;37741;49.748;8.490;2023-02-03T03:00:21;7.50;88.60
51661;DHT22;37741;49.748;8.490;2023-02-03T03:02:47;7.50;88.60
51661;DHT22;37741;49.748;8.490;2023-02-03T03:05:13;7.50;88.60
51661;DHT22;37741;49.748;8.490;2023-02-03T03:07:47;7.50;88.70
51661;DHT22;37741;49.748;8.490;2023-02-03T03:10:18;7.50;88.80
51661;DHT22;37741;49.748;8.490;2023-02-03T03:12:53;7.50;88.70
51661;DHT22;37741;49.748;8.490;2023-02-03T03:15:24;7.50;88.80
51661;DHT22;37741;49.748;8.490;2023-02-03T03:18:00;7.50;88.80
51661;DHT22;37741;49.748;8.490;2023-02-03T03:20:30;7.50;88.90
51661;DHT22;37741;49.748;8.490;2023-02-03T03:23:06;7.50;88.90
51661;DHT22;37741;49.748;8.490;2023-02-03T03:25:42;7.60;89.00
51661;DHT22;37741;49.748;8.490;2023-02-03T03:28:16;7.50;89.00
51661;DHT22;37741;49.748;8.490;2023-02-03T03:30:43;7.60;89.10
51661;DHT22;37741;49.748;8.490;2023-02-03T03:33:09;7.50;89.00
51661;DHT22;37741;49.748;8.490;2023-02-03T03:35:40;7.50;89.10
51661;DHT22;37741;49.748;8.490;2023-02-03T03:38:13;7.50;89.10
51661;DHT22;37741;49.748;8.490;2023-02-03T03:40:49;7.50;89.20
51661;DHT22;37741;49.748;8.490;2023-02-03T03:43:24;7.50;89.20
51661;DHT22;37741;49.748;8.490;2023-02-03T03:46:14;7.50;89.30
51661;DHT22;37741;49.748;8.490;2023-02-03T03:48:57;7.50;89.20
51661;DHT22;37741;49.748;8.490;2023-02-03T03:51:34;7.50;89.30
51661;DHT22;37741;49.748;8.490;2023-02-03T03:54:06;7.50;89.30
51661;DHT22;37741;49.748;8.490;2023-02-03T03:56:45;7.50;89.30
51661;DHT22;37741;49.748;8.490;2023-02-03T03:59:13;7.50;89.30
51661;DHT22;37741;49.748;8.490;2023-02-03T04:01:41;7.50;89.30
51661;DHT22;37741;49.748;8.490;2023-02-03T04:04:09;7.50;89.30
51661;DHT22;37741;49.748;8.490;2023-02-03T04:06:37;7.50;89.30
51661;DHT22;37741;49.748;8.490;2023-02-03T04:09:04;7.50;89.30
51661;DHT22;37741;49.748;8.490;2023-02-03T04:11:30;7.50;89.30
51661;DHT22;37741;49.748;8.490;2023-02-03T04:14:14;7.50;90.00
51661;DHT22;37741;49.748;8.490;2023-02-03T04:16:40;7.50;89.40
51661;DHT22;37741;49.748;8.490;2023-02-03T04:19:06;7.50;90.00
51661;DHT22;37741;49.748;8.490;2023-02-03T04:21:31;7.50;89.30
51661;DHT22;37741;49.748;8.490;2023-02-03T04:23:57;7.50;89.30
51661;DHT22;37741;49.748;8.490;2023-02-03T04:26:22;7.50;89.30
51661;DHT22;37741;49.748;8.490;2023-02-03T04:28:48;7.50;89.40
51661;DHT22;37741;49.748;8.490;2023-02-03T04:31:14;7.50;89.30
51661;DHT22;37741;49.748;8.490;2023-02-03T04:33:39;7.50;89.30
51661;DHT22;37741;49.748;8.490;2023-02-03T04:36:05;7.50;89.30
51661;DHT22;37741;49.748;8.490;2023-02-03T04:38:31;7.50;89.30
51661;DHT22;37741;49.748;8.490;2023-02-03T04:40:57;7.50;89.30
51661;DHT22;37741;49.748;8.490;2023-02-03T04:43:23;7.50;89.30
51661;DHT22;37741;49.748;8.490;2023-02-03T04:45:49;7.50;89.30
51661;DHT22;37741;49.748;8.490;2023-02-03T04:48:14;7.50;89.40
51661;DHT22;37741;49.748;8.490;2023-02-03T04:50:40;7.50;89.30
51661;DHT22;37741;49.748;8.490;2023-02-03T04:53:06;7.50;89.30
51661;DHT22;37741;49.748;8.490;2023-02-03T04:55:32;7.50;89.30
51661;DHT22;37741;49.748;8.490;2023-02-03T04:57:59;7.50;89.30
51661;DHT22;37741;49.748;8.490;2023-02-03T05:00:26;7.50;89.20
51661;DHT22;37741;49.748;8.490;2023-02-03T05:02:52;7.50;89.20
51661;DHT22;37741;49.748;8.490;2023-02-03T05:05:18;7.50;89.10
51661;DHT22;37741;49.748;8.490;2023-02-03T05:07:44;7.50;89.20
51661;DHT22;37741;49.748;8.490;2023-02-03T05:10:09;7.50;89.20
51661;DHT22;37741;49.748;8.490;2023-02-03T05:12:35;7.50;89.20
51661;DHT22;37741;49.748;8.490;2023-02-03T05:15:00;7.50;89.20
51661;DHT22;37741;49.748;8.490;2023-02-03T05:17:26;7.50;89.20
51661;DHT22;37741;49.748;8.490;2023-02-03T05:19:52;7.50;89.30
51661;DHT22;37741;49.748;8.490;2023-02-03T05:22:17;7.50;89.30
51661;DHT22;37741;49.748;8.490;2023-02-03T05:24:43;7.50;89.30
51661;DHT22;37741;49.748;8.490;2023-02-03T05:27:09;7.50;89.30
51661;DHT22;37741;49.748;8.490;2023-02-03T05:29:34;7.50;89.60
51661;DHT22;37741;49.748;8.490;2023-02-03T05:32:00;7.50;89.50
51661;DHT22;37741;49.748;8.490;2023-02-03T05:34:26;7.50;89.30
51661;DHT22;37741;49.748;8.490;2023-02-03T05:36:51;7.50;89.40
51661;DHT22;37741;49.748;8.490;2023-02-03T05:39:17;7.50;89.30
51661;DHT22;37741;49.748;8.490;2023-02-03T05:41:43;7.50;89.30
51661;DHT22;37741;49.748;8.490;2023-02-03T05:44:25;7.50;89.50
51661;DHT22;37741;49.748;8.490;2023-02-03T05:46:52;7.50;89.40
51661;DHT22;37741;49.748;8.490;2023-02-03T05:49:18;7.50;89.40
51661;DHT22;37741;49.748;8.490;2023-02-03T05:51:45;7.50;89.50
51661;DHT22;37741;49.748;8.490;2023-02-03T05:54:11;7.50;89.50
51661;DHT22;37741;49.748;8.490;2023-02-03T05:56:37;7.50;89.50
51661;DHT22;37741;49.748;8.490;2023-02-03T05:59:04;7.50;89.60
51661;DHT22;37741;49.748;8.490;2023-02-03T06:01:30;7.50;89.60
51661;DHT22;37741;49.748;8.490;2023-02-03T06:03:58;7.50;89.70
51661;DHT22;37741;49.748;8.490;2023-02-03T06:06:24;7.50;89.70
51661;DHT22;37741;49.748;8.490;2023-02-03T06:08:51;7.50;89.70
51661;DHT22;37741;49.748;8.490;2023-02-03T06:11:21;7.50;89.80
51661;DHT22;37741;49.748;8.490;2023-02-03T06:13:49;7.50;89.90
51661;DHT22;37741;49.748;8.490;2023-02-03T06:16:15;7.50;89.90
51661;DHT22;37741;49.748;8.490;2023-02-03T06:18:40;7.50;89.80
51661;DHT22;37741;49.748;8.490;2023-02-03T06:21:06;7.50;89.90
51661;DHT22;37741;49.748;8.490;2023-02-03T06:23:32;7.40;89.90
51661;DHT22;37741;49.748;8.490;2023-02-03T06:25:57;7.40;89.80
51661;DHT22;37741;49.748;8.490;2023-02-03T06:28:25;7.40;89.80
51661;DHT22;37741;49.748;8.490;2023-02-03T06:30:51;7.40;89.80
51661;DHT22;37741;49.748;8.490;2023-02-03T06:33:18;7.50;89.90
51661;DHT22;37741;49.748;8.490;2023-02-03T06:35:44;7.40;89.80
51661;DHT22;37741;49.748;8.490;2023-02-03T06:38:09;7.40;89.80
51661;DHT22;37741;49.748;8.490;2023-02-03T06:40:35;7.40;89.80
51661;DHT22;37741;49.748;8.490;2023-02-03T06:43:01;7.40;89.90
51661;DHT22;37741;49.748;8.490;2023-02-03T06:45:27;7.50;89.90
51661;DHT22;37741;49.748;8.490;2023-02-03T06:47:53;7.50;89.90
51661;DHT22;37741;49.748;8.490;2023-02-03T06:50:18;7.40;89.80
51661;DHT22;37741;49.748;8.490;2023-02-03T06:52:44;7.40;89.80
51661;DHT22;37741;49.748;8.490;2023-02-03T06:55:10;7.40;89.80
51661;DHT22;37741;49.748;8.490;2023-02-03T06:57:42;7.40;89.80
51661;DHT22;37741;49.748;8.490;2023-02-03T07:00:08;7.40;89.80
51661;DHT22;37741;49.748;8.490;2023-02-03T07:02:34;7.40;89.80
51661;DHT22;37741;49.748;8.490;2023-02-03T07:05:02;7.40;89.80
51661;DHT22;37741;49.748;8.490;2023-02-03T07:07:27;7.40;89.90
51661;DHT22;37741;49.748;8.490;2023-02-03T07:09:54;7.40;89.80
51661;DHT22;37741;49.748;8.490;2023-02-03T07:12:20;7.40;89.80
51661;DHT22;37741;49.748;8.490;2023-02-03T07:14:45;7.40;89.90
51661;DHT22;37741;49.748;8.490;2023-02-03T07:17:11;7.40;89.70
51661;DHT22;37741;49.748;8.490;2023-02-03T07:19:36;7.40;89.80
51661;DHT22;37741;49.748;8.490;2023-02-03T07:22:02;7.50;89.80
51661;DHT22;37741;49.748;8.490;2023-02-03T07:24:28;7.40;89.70
51661;DHT22;37741;49.748;8.490;2023-02-03T07:26:53;7.40;89.70
51661;DHT22;37741;49.748;8.490;2023-02-03T07:29:19;7.40;89.70
51661;DHT22;37741;49.748;8.490;2023-02-03T07:31:44;7.40;89.60
51661;DHT22;37741;49.748;8.490;2023-02-03T07:34:10;7.40;89.60
51661;DHT22;37741;49.748;8.490;2023-02-03T07:36:35;7.40;89.70
51661;DHT22;37741;49.748;8.490;2023-02-03T07:39:01;7.50;89.60
51661;DHT22;37741;49.748;8.490;2023-02-03T07:41:27;7.40;89.60
51661;DHT22;37741;49.748;8.490;2023-02-03T07:43:52;7.40;89.70
51661;DHT22;37741;49.748;8.490;2023-02-03T07:46:18;7.40;89.60
51661;DHT22;37741;49.748;8.490;2023-02-03T07:48:44;7.40;89.60
51661;DHT22;37741;49.748;8.490;2023-02-03T07:51:09;7.40;89.70
51661;DHT22;37741;49.748;8.490;2023-02-03T07:53:35;7.40;89.60
51661;DHT22;37741;49.748;8.490;2023-02-03T07:56:04;7.40;89.70
51661;DHT22;37741;49.748;8.490;2023-02-03T07:58:30;7.40;89.70
51661;DHT22;37741;49.748;8.490;2023-02-03T08:00:57;7.40;89.80
51661;DHT22;37741;49.748;8.490;2023-02-03T08:03:23;7.40;89.70
51661;DHT22;37741;49.748;8.490;2023-02-03T08:05:49;7.40;89.70
51661;DHT22;37741;49.748;8.490;2023-02-03T08:08:15;7.40;89.70
51661;DHT22;37741;49.748;8.490;2023-02-03T08:10:40;7.50;89.70
51661;DHT22;37741;49.748;8.490;2023-02-03T08:13:06;7.50;89.70
51661;DHT22;37741;49.748;8.490;2023-02-03T08:15:32;7.40;89.80
51661;DHT22;37741;49.748;8.490;2023-02-03T08:17:57;7.40;89.60
51661;DHT22;37741;49.748;8.490;2023-02-03T08:20:23;7.40;89.70
51661;DHT22;37741;49.748;8.490;2023-02-03T08:22:49;7.50;90.00
51661;DHT22;37741;49.748;8.490;2023-02-03T08:25:15;7.50;89.80
51661;DHT22;37741;49.748;8.490;2023-02-03T08:27:41;7.50;89.80
51661;DHT22;37741;49.748;8.490;2023-02-03T08:30:14;7.50;89.80
51661;DHT22;37741;49.748;8.490;2023-02-03T08:32:39;7.50;89.80
51661;DHT22;37741;49.748;8.490;2023-02-03T08:35:05;7.50;89.90
51661;DHT22;37741;49.748;8.490;2023-02-03T08:37:31;7.50;90.00
51661;DHT22;37741;49.748;8.490;2023-02-03T08:39:57;7.50;90.00
51661;DHT22;37741;49.748;8.490;2023-02-03T08:42:23;7.50;90.00
51661;DHT22;37741;49.748;8.490;2023-02-03T08:44:48;7.50;89.90
51661;DHT22;37741;49.748;8.490;2023-02-03T08:47:14;7.50;89.90
51661;DHT22;37741;49.748;8.490;2023-02-03T08:49:40;7.50;89.90
51661;DHT22;37741;49.748;8.490;2023-02-03T08:52:07;7.50;89.80
51661;DHT22;37741;49.748;8.490;2023-02-03T08:54:33;7.50;89.80
51661;DHT22;37741;49.748;8.490;2023-02-03T08:56:59;7.50;89.80
51661;DHT22;37741;49.748;8.490;2023-02-03T08:59:24;7.50;89.80
51661;DHT22;37741;49.748;8.490;2023-02-03T09:01:51;7.50;89.80
51661;DHT22;37741;49.748;8.490;2023-02-03T09:04:18;7.50;89.70
51661;DHT22;37741;49.748;8.490;2023-02-03T09:06:50;7.50;89.80
51661;DHT22;37741;49.748;8.490;2023-02-03T09:09:16;7.50;89.70
51661;DHT22;37741;49.748;8.490;2023-02-03T09:11:42;7.50;89.70
51661;DHT22;37741;49.748;8.490;2023-02-03T09:14:08;7.50;89.80
51661;DHT22;37741;49.748;8.490;2023-02-03T09:16:34;7.50;89.60
51661;DHT22;37741;49.748;8.490;2023-02-03T09:18:59;7.50;89.60
51661;DHT22;37741;49.748;8.490;2023-02-03T09:21:25;7.50;89.70
51661;DHT22;37741;49.748;8.490;2023-02-03T09:23:51;7.50;89.60
51661;DHT22;37741;49.748;8.490;2023-02-03T09:26:17;7.50;89.60
51661;DHT22;37741;49.748;8.490;2023-02-03T09:28:42;7.50;89.50
51661;DHT22;37741;49.748;8.490;2023-02-03T09:31:13;7.60;89.60
51661;DHT22;37741;49.748;8.490;2023-02-03T09:33:42;7.50;89.40
51661;DHT22;37741;49.748;8.490;2023-02-03T09:36:09;7.50;89.30
51661;DHT22;37741;49.748;8.490;2023-02-03T09:38:35;7.60;89.40
51661;DHT22;37741;49.748;8.490;2023-02-03T09:46:18;7.60;89.30
51661;DHT22;37741;49.748;8.490;2023-02-03T09:48:49;7.60;89.30
51661;DHT22;37741;49.748;8.490;2023-02-03T09:51:28;7.60;89.30
51661;DHT22;37741;49.748;8.490;2023-02-03T09:54:02;7.60;89.30
51661;DHT22;37741;49.748;8.490;2023-02-03T09:56:31;7.60;89.30
51661;DHT22;37741;49.748;8.490;2023-02-03T09:58:58;7.60;89.20
51661;DHT22;37741;49.748;8.490;2023-02-03T10:01:29;7.60;89.20
51661;DHT22;37741;49.748;8.490;2023-02-03T10:04:04;7.60;89.10
51661;DHT22;37741;49.748;8.490;2023-02-03T10:06:38;7.60;89.10
51661;DHT22;37741;49.748;8.490;2023-02-03T10:09:38;7.60;89.10
51661;DHT22;37741;49.748;8.490;2023-02-03T10:12:28;7.60;89.00
51661;DHT22;37741;49.748;8.490;2023-02-03T10:17:38;7.70;89.00
51661;DHT22;37741;49.748;8.490;2023-02-03T10:22:46;7.70;89.00
51661;DHT22;37741;49.748;8.490;2023-02-03T10:27:40;7.70;89.00
51661;DHT22;37741;49.748;8.490;2023-02-03T10:30:25;7.70;89.00
51661;DHT22;37741;49.748;8.490;2023-02-03T10:32:59;7.70;89.00
51661;DHT22;37741;49.748;8.490;2023-02-03T10:35:52;7.70;88.90
51661;DHT22;37741;49.748;8.490;2023-02-03T10:40:52;7.70;88.80
51661;DHT22;37741;49.748;8.490;2023-02-03T10:43:18;7.80;88.80
51661;DHT22;37741;49.748;8.490;2023-02-03T10:46:02;7.70;88.70
51661;DHT22;37741;49.748;8.490;2023-02-03T10:48:27;7.80;88.80
51661;DHT22;37741;49.748;8.490;2023-02-03T10:50:54;7.80;88.70
51661;DHT22;37741;49.748;8.490;2023-02-03T10:53:33;7.80;88.70
51661;DHT22;37741;49.748;8.490;2023-02-03T10:56:09;7.80;88.80
51661;DHT22;37741;49.748;8.490;2023-02-03T10:58:36;7.80;88.70
51661;DHT22;37741;49.748;8.490;2023-02-03T11:01:08;7.80;88.70
51661;DHT22;37741;49.748;8.490;2023-02-03T11:03:34;7.80;88.60
51661;DHT22;37741;49.748;8.490;2023-02-03T11:06:14;7.80;88.60
51661;DHT22;37741;49.748;8.490;2023-02-03T11:08:45;7.90;88.70
51661;DHT22;37741;49.748;8.490;2023-02-03T11:11:26;7.80;89.00
51661;DHT22;37741;49.748;8.490;2023-02-03T11:13:53;7.90;88.90
51661;DHT22;37741;49.748;8.490;2023-02-03T11:16:20;7.90;88.90
51661;DHT22;37741;49.748;8.490;2023-02-03T11:21:30;7.90;88.80
51661;DHT22;37741;49.748;8.490;2023-02-03T11:24:01;7.90;88.80
51661;DHT22;37741;49.748;8.490;2023-02-03T11:26:32;7.90;88.80
51661;DHT22;37741;49.748;8.490;2023-02-03T11:29:01;8.00;88.80
51661;DHT22;37741;49.748;8.490;2023-02-03T11:31:35;8.00;88.80
51661;DHT22;37741;49.748;8.490;2023-02-03T11:34:16;7.90;88.80
51661;DHT22;37741;49.748;8.490;2023-02-03T11:36:42;8.00;88.80
51661;DHT22;37741;49.748;8.490;2023-02-03T11:39:09;8.00;88.70
51661;DHT22;37741;49.748;8.490;2023-02-03T11:41:39;8.00;88.70
51661;DHT22;37741;49.748;8.490;2023-02-03T11:44:30;8.00;88.70
51661;DHT22;37741;49.748;8.490;2023-02-03T11:47:02;8.00;88.70
51661;DHT22;37741;49.748;8.490;2023-02-03T11:52:23;8.00;88.70
51661;DHT22;37741;49.748;8.490;2023-02-03T12:09:07;8.10;88.50
51661;DHT22;37741;49.748;8.490;2023-02-03T12:31:03;8.20;88.30
51661;DHT22;37741;49.748;8.490;2023-02-03T12:34:19;8.20;88.30
51661;DHT22;37741;49.748;8.490;2023-02-03T12:37:09;8.20;88.20
51661;DHT22;37741;49.748;8.490;2023-02-03T12:39:54;8.20;88.10
51661;DHT22;37741;49.748;8.490;2023-02-03T12:42:23;8.30;88.10
51661;DHT22;37741;49.748;8.490;2023-02-03T12:45:13;8.30;88.00
51661;DHT22;37741;49.748;8.490;2023-02-03T12:47:50;8.30;88.00
51661;DHT22;37741;49.748;8.490;2023-02-03T12:56:06;8.40;88.10
51661;DHT22;37741;49.748;8.490;2023-02-03T13:01:19;8.40;88.20
51661;DHT22;37741;49.748;8.490;2023-02-03T13:07:02;8.40;88.40
51661;DHT22;37741;49.748;8.490;2023-02-03T13:09:40;8.40;88.40
51661;DHT22;37741;49.748;8.490;2023-02-03T13:15:35;8.50;88.50
51661;DHT22;37741;49.748;8.490;2023-02-03T13:20:40;8.50;88.50
51661;DHT22;37741;49.748;8.490;2023-02-03T13:23:11;8.50;88.60
51661;DHT22;37741;49.748;8.490;2023-02-03T13:34:29;8.50;88.60
51661;DHT22;37741;49.748;8.490;2023-02-03T13:39:58;8.50;89.30
51661;DHT22;37741;49.748;8.490;2023-02-03T13:42:37;8.50;88.60
51661;DHT22;37741;49.748;8.490;2023-02-03T13:45:26;8.50;88.60
51661;DHT22;37741;49.748;8.490;2023-02-03T13:51:20;8.50;88.60
51661;DHT22;37741;49.748;8.490;2023-02-03T13:53:48;8.60;88.60
51661;DHT22;37741;49.748;8.490;2023-02-03T13:56:20;8.60;88.60
51661;DHT22;37741;49.748;8.490;2023-02-03T13:59:26;8.60;88.60
51661;DHT22;37741;49.748;8.490;2023-02-03T14:01:45;8.50;88.50
51661;DHT22;37741;49.748;8.490;2023-02-03T14:14:54;8.50;88.50
51661;DHT22;37741;49.748;8.490;2023-02-03T14:20:01;8.60;88.50
51661;DHT22;37741;49.748;8.490;2023-02-03T14:22:28;8.60;88.50
51661;DHT22;37741;49.748;8.490;2023-02-03T14:24:57;8.60;88.50
51661;DHT22;37741;49.748;8.490;2023-02-03T14:27:28;8.60;88.50
51661;DHT22;37741;49.748;8.490;2023-02-03T14:30:12;8.60;88.50
51661;DHT22;37741;49.748;8.490;2023-02-03T14:32:54;8.60;88.50
51661;DHT22;37741;49.748;8.490;2023-02-03T14:35:31;8.60;88.50
51661;DHT22;37741;49.748;8.490;2023-02-03T14:38:11;8.60;88.50
51661;DHT22;37741;49.748;8.490;2023-02-03T14:40:58;8.60;88.50
51661;DHT22;37741;49.748;8.490;2023-02-03T14:44:05;8.60;88.50
51661;DHT22;37741;49.748;8.490;2023-02-03T14:57:35;8.70;88.70
51661;DHT22;37741;49.748;8.490;2023-02-03T15:08:01;8.70;88.80
51661;DHT22;37741;49.748;8.490;2023-02-03T15:10:44;8.60;88.70
51661;DHT22;37741;49.748;8.490;2023-02-03T15:13:29;8.70;88.80
51661;DHT22;37741;49.748;8.490;2023-02-03T15:15:58;8.70;88.80
51661;DHT22;37741;49.748;8.490;2023-02-03T15:18:33;8.70;88.80
51661;DHT22;37741;49.748;8.490;2023-02-03T15:21:01;8.70;88.80
51661;DHT22;37741;49.748;8.490;2023-02-03T15:23:37;8.70;88.90
51661;DHT22;37741;49.748;8.490;2023-02-03T15:26:11;8.70;88.90
51661;DHT22;37741;49.748;8.490;2023-02-03T15:28:37;8.70;88.90
51661;DHT22;37741;49.748;8.490;2023-02-03T15:31:08;8.70;88.90
51661;DHT22;37741;49.748;8.490;2023-02-03T15:33:39;8.70;89.00
51661;DHT22;37741;49.748;8.490;2023-02-03T15:36:14;8.70;89.00
51661;DHT22;37741;49.748;8.490;2023-02-03T15:38:45;8.70;89.10
51661;DHT22;37741;49.748;8.490;2023-02-03T15:41:23;8.70;89.10
51661;DHT22;37741;49.748;8.490;2023-02-03T15:44:00;8.70;89.20
51661;DHT22;37741;49.748;8.490;2023-02-03T15:46:37;8.70;89.20
51661;DHT22;37741;49.748;8.490;2023-02-03T15:49:18;8.70;89.20
51661;DHT22;37741;49.748;8.490;2023-02-03T15:54:20;8.70;89.30
51661;DHT22;37741;49.748;8.490;2023-02-03T15:56:53;8.70;89.30
51661;DHT22;37741;49.748;8.490;2023-02-03T15:59:33;8.70;89.90
51661;DHT22;37741;49.748;8.490;2023-02-03T16:02:05;8.70;89.30
51661;DHT22;37741;49.748;8.490;2023-02-03T16:04:31;8.70;89.40
51661;DHT22;37741;49.748;8.490;2023-02-03T16:06:58;8.70;89.40
51661;DHT22;37741;49.748;8.490;2023-02-03T16:09:31;8.70;89.40
51661;DHT22;37741;49.748;8.490;2023-02-03T16:12:21;8.70;89.50
51661;DHT22;37741;49.748;8.490;2023-02-03T16:14:47;8.70;89.50
51661;DHT22;37741;49.748;8.490;2023-02-03T16:17:31;8.70;89.50
51661;DHT22;37741;49.748;8.490;2023-02-03T16:22:45;8.70;89.70
51661;DHT22;37741;49.748;8.490;2023-02-03T16:25:22;8.70;89.70
51661;DHT22;37741;49.748;8.490;2023-02-03T16:30:58;8.70;89.80
51661;DHT22;37741;49.748;8.490;2023-02-03T16:33:44;8.70;89.80
51661;DHT22;37741;49.748;8.490;2023-02-03T16:36:29;8.70;89.80
51661;DHT22;37741;49.748;8.490;2023-02-03T16:39:13;8.70;89.80
51661;DHT22;37741;49.748;8.490;2023-02-03T16:41:58;8.70;89.80
51661;DHT22;37741;49.748;8.490;2023-02-03T16:44:43;8.70;89.90
51661;DHT22;37741;49.748;8.490;2023-02-03T16:47:30;8.70;89.80
51661;DHT22;37741;49.748;8.490;2023-02-03T16:50:19;8.60;89.80
51661;DHT22;37741;49.748;8.490;2023-02-03T16:53:03;8.70;89.90
51661;DHT22;37741;49.748;8.490;2023-02-03T16:55:29;8.60;90.00
51661;DHT22;37741;49.748;8.490;2023-02-03T16:57:55;8.70;90.00
51661;DHT22;37741;49.748;8.490;2023-02-03T17:00:24;8.60;90.20
51661;DHT22;37741;49.748;8.490;2023-02-03T17:02:50;8.60;90.00
51661;DHT22;37741;49.748;8.490;2023-02-03T17:05:16;8.60;90.00
51661;DHT22;37741;49.748;8.490;2023-02-03T17:07:42;8.60;90.00
51661;DHT22;37741;49.748;8.490;2023-02-03T17:10:08;8.60;90.00
51661;DHT22;37741;49.748;8.490;2023-02-03T17:12:34;8.60;90.10
51661;DHT22;37741;49.748;8.490;2023-02-03T17:15:03;8.60;90.10
51661;DHT22;37741;49.748;8.490;2023-02-03T17:17:28;8.70;90.10
51661;DHT22;37741;49.748;8.490;2023-02-03T17:19:54;8.60;90.10
51661;DHT22;37741;49.748;8.490;2023-02-03T17:22:21;8.60;90.20
51661;DHT22;37741;49.748;8.490;2023-02-03T17:24:47;8.60;90.10
51661;DHT22;37741;49.748;8.490;2023-02-03T17:27:12;8.70;90.10
51661;DHT22;37741;49.748;8.490;2023-02-03T17:29:38;8.60;90.30
51661;DHT22;37741;49.748;8.490;2023-02-03T17:32:04;8.60;90.20
51661;DHT22;37741;49.748;8.490;2023-02-03T17:34:29;8.60;90.10
51661;DHT22;37741;49.748;8.490;2023-02-03T17:36:55;8.60;90.00
51661;DHT22;37741;49.748;8.490;2023-02-03T17:39:20;8.60;90.20
51661;DHT22;37741;49.748;8.490;2023-02-03T17:41:46;8.60;90.10
51661;DHT22;37741;49.748;8.490;2023-02-03T17:44:12;8.60;90.20
51661;DHT22;37741;49.748;8.490;2023-02-03T17:46:37;8.70;90.10
51661;DHT22;37741;49.748;8.490;2023-02-03T17:49:10;8.60;90.20
51661;DHT22;37741;49.748;8.490;2023-02-03T17:51:36;8.60;90.10
51661;DHT22;37741;49.748;8.490;2023-02-03T17:54:01;8.60;90.10
51661;DHT22;37741;49.748;8.490;2023-02-03T17:56:32;8.60;90.10
51661;DHT22;37741;49.748;8.490;2023-02-03T17:59:00;8.60;90.20
51661;DHT22;37741;49.748;8.490;2023-02-03T18:01:26;8.60;90.30
51661;DHT22;37741;49.748;8.490;2023-02-03T18:03:55;8.60;90.20
51661;DHT22;37741;49.748;8.490;2023-02-03T18:06:22;8.60;90.10
51661;DHT22;37741;49.748;8.490;2023-02-03T18:08:49;8.60;90.20
51661;DHT22;37741;49.748;8.490;2023-02-03T18:11:16;8.60;90.20
51661;DHT22;37741;49.748;8.490;2023-02-03T18:13:44;8.60;90.20
51661;DHT22;37741;49.748;8.490;2023-02-03T18:16:14;8.60;90.30
51661;DHT22;37741;49.748;8.490;2023-02-03T18:18:41;8.60;90.30
51661;DHT22;37741;49.748;8.490;2023-02-03T18:21:11;8.60;90.20
51661;DHT22;37741;49.748;8.490;2023-02-03T18:23:37;8.60;90.20
51661;DHT22;37741;49.748;8.490;2023-02-03T18:26:04;8.60;90.20
51661;DHT22;37741;49.748;8.490;2023-02-03T18:28:31;8.60;90.30
51661;DHT22;37741;49.748;8.490;2023-02-03T18:31:04;8.60;90.20
51661;DHT22;37741;49.748;8.490;2023-02-03T18:33:30;8.60;90.30
51661;DHT22;37741;49.748;8.490;2023-02-03T18:35:57;8.60;90.20